Time;durP1;ratioP1;P1;durP2;ratioP2;P2;SDS_P1;SDS_P2;PMS_P1;PMS_P2;Temp;Humidity;BMP_temperature;BMP_pressure;BME280_temperature;BME280_humidity;BME280_pressure;Samples;Min_cycle;Max_cycle;Signal;HPM_P1;HPM_P2
2021/11/03 00:00:41;;;;;;;8.87;7.97;;;;;;;;;;5054015;28;20263;-74
2021/11/03 00:03:08;;;;;;;10.70;8.90;;;;;;;;;;5055265;28;20294;-74
2021/11/03 00:05:34;;;;;;;8.70;7.80;;;;;;;;;;5051578;28;20566;-74
2021/11/03 00:08:02;;;;;;;11.17;8.63;;;;;;;;;;5052625;28;20241;-74
2021/11/03 00:10:28;;;;;;;11.00;9.07;;;;;;;;;;5053432;28;20265;-74
2021/11/03 00:12:56;;;;;;;10.40;9.40;;;;;;;;;;5052679;28;20577;-74
2021/11/03 00:15:23;;;;;;;10.37;9.40;;;;;;;;;;5052004;28;20226;-74
2021/11/03 00:17:49;;;;;;;11.87;10.67;;;;;;;;;;5053547;28;20211;-74
2021/11/03 00:20:16;;;;;;;10.80;9.17;;;;;;;;;;5050360;28;20288;-73
2021/11/03 00:22:42;;;;;;;12.53;10.60;;;;;;;;;;5052713;28;20222;-74
2021/11/03 00:25:09;;;;;;;10.53;9.17;;;;;;;;;;5051024;28;20226;-74
2021/11/03 00:27:35;;;;;;;11.47;10.27;;;;;;;;;;5052865;28;20215;-74
2021/11/03 00:30:04;;;;;;;12.00;9.80;;;;;;;;;;5053445;28;20206;-74
2021/11/03 00:32:30;;;;;;;10.57;9.43;;;;;;;;;;5050903;28;20261;-74
2021/11/03 00:34:57;;;;;;;10.40;9.27;;;;;;;;;;5052042;28;20288;-74
2021/11/03 00:37:23;;;;;;;10.00;9.00;;;;;;;;;;5052560;28;20281;-74
2021/11/03 00:39:50;;;;;;;9.73;8.83;;;;;;;;;;5052409;28;20234;-74
2021/11/03 00:42:16;;;;;;;10.30;9.30;;;;;;;;;;5050255;28;20220;-74
2021/11/03 00:44:43;;;;;;;9.73;8.83;;;;;;;;;;5052365;28;20730;-74
2021/11/03 00:47:11;;;;;;;10.00;9.10;;;;;;;;;;5056638;28;20205;-74
2021/11/03 00:49:37;;;;;;;9.43;8.63;;;;;;;;;;5056747;28;20316;-74
2021/11/03 00:52:04;;;;;;;10.50;8.97;;;;;;;;;;5054101;28;20759;-74
2021/11/03 00:54:30;;;;;;;11.27;10.13;;;;;;;;;;5054080;28;20243;-74
2021/11/03 00:56:57;;;;;;;10.30;9.30;;;;;;;;;;5056960;28;20714;-74
2021/11/03 00:59:24;;;;;;;11.97;9.67;;;;;;;;;;5054640;28;20295;-74
2021/11/03 01:01:50;;;;;;;11.63;10.53;;;;;;;;;;5054597;28;20263;-74
2021/11/03 01:04:18;;;;;;;11.30;9.90;;;;;;;;;;5054749;28;20242;-74
2021/11/03 01:06:45;;;;;;;12.17;11.07;;;;;;;;;;5055709;28;21189;-74
2021/11/03 01:09:12;;;;;;;12.70;11.40;;;;;;;;;;5054293;28;20252;-74
2021/11/03 01:11:38;;;;;;;12.67;11.40;;;;;;;;;;5056567;28;20211;-74
2021/11/03 01:14:06;;;;;;;13.60;12.30;;;;;;;;;;5056904;28;20827;-73
2021/11/03 01:16:34;;;;;;;15.00;13.27;;;;;;;;;;5054992;28;20234;-73
2021/11/03 01:19:01;;;;;;;14.27;12.87;;;;;;;;;;5054430;28;20227;-73
2021/11/03 01:21:29;;;;;;;14.57;13.17;;;;;;;;;;5055841;28;20259;-73
2021/11/03 01:23:55;;;;;;;13.10;12.00;;;;;;;;;;5056597;28;20233;-73
2021/11/03 01:26:22;;;;;;;12.00;10.80;;;;;;;;;;5054662;28;20237;-73
2021/11/03 01:28:48;;;;;;;13.93;12.53;;;;;;;;;;5053681;28;20659;-73
2021/11/03 01:31:14;;;;;;;12.10;11.10;;;;;;;;;;5055656;28;20218;-73
2021/11/03 01:33:42;;;;;;;12.57;11.47;;;;;;;;;;5055808;28;20265;-73
2021/11/03 01:36:08;;;;;;;13.17;11.93;;;;;;;;;;5054208;28;20877;-74
2021/11/03 01:38:36;;;;;;;12.47;11.23;;;;;;;;;;5054546;28;20253;-74
2021/11/03 01:41:04;;;;;;;14.03;12.67;;;;;;;;;;5056488;28;20299;-74
2021/11/03 01:43:37;;;;;;;14.67;13.23;;;;;;;;;;5057204;28;20300;-74
2021/11/03 01:46:23;;;;;;;16.47;14.80;;;;;;;;;;5055170;28;20214;-74
2021/11/03 01:48:55;;;;;;;16.20;14.60;;;;;;;;;;5054915;28;20286;-74
2021/11/03 01:51:28;;;;;;;18.33;16.07;;;;;;;;;;5055820;28;20210;-74
2021/11/03 01:53:56;;;;;;;19.20;17.17;;;;;;;;;;5056617;28;20287;-74
2021/11/03 01:56:23;;;;;;;20.00;18.00;;;;;;;;;;5054907;28;20222;-74
2021/11/03 01:58:53;;;;;;;23.73;20.33;;;;;;;;;;5056767;28;20679;-74
2021/11/03 02:01:20;;;;;;;23.40;20.43;;;;;;;;;;5056055;28;20649;-74
2021/11/03 02:03:49;;;;;;;26.70;21.23;;;;;;;;;;5054760;28;20691;-74
2021/11/03 02:06:19;;;;;;;30.23;25.37;;;;;;;;;;5054585;28;20322;-74
2021/11/03 02:08:47;;;;;;;36.63;28.93;;;;;;;;;;5055952;28;20292;-74
2021/11/03 02:11:17;;;;;;;35.50;26.20;;;;;;;;;;5055258;28;20218;-74
2021/11/03 02:13:45;;;;;;;40.43;32.43;;;;;;;;;;5055009;28;20218;-74
2021/11/03 02:16:13;;;;;;;42.73;31.63;;;;;;;;;;5053880;28;20230;-74
2021/11/03 02:18:40;;;;;;;50.10;34.50;;;;;;;;;;5053785;28;20230;-74
2021/11/03 02:21:09;;;;;;;49.37;36.37;;;;;;;;;;5055263;28;20211;-74
2021/11/03 02:23:42;;;;;;;62.47;38.60;;;;;;;;;;5056464;28;20633;-74
2021/11/03 02:26:12;;;;;;;51.57;37.00;;;;;;;;;;5054783;28;20637;-74
2021/11/03 02:28:42;;;;;;;63.83;41.77;;;;;;;;;;5054780;28;20890;-74
2021/11/03 02:31:27;;;;;;;73.50;44.10;;;;;;;;;;5055054;28;20276;-74
2021/11/03 02:33:53;;;;;;;56.83;39.27;;;;;;;;;;5053633;28;20595;-74
2021/11/03 02:36:19;;;;;;;74.03;44.80;;;;;;;;;;5054211;28;20234;-74
2021/11/03 02:38:46;;;;;;;131.53;56.33;;;;;;;;;;5054599;28;20285;-74
2021/11/03 02:41:17;;;;;;;318.53;76.03;;;;;;;;;;5053554;28;20615;-74
2021/11/03 02:43:46;;;;;;;415.97;74.47;;;;;;;;;;5054506;28;20223;-74
2021/11/03 02:46:14;;;;;;;603.60;97.47;;;;;;;;;;5053693;28;20300;-74
2021/11/03 02:48:42;;;;;;;620.17;99.93;;;;;;;;;;5055934;28;20230;-74
2021/11/03 02:51:15;;;;;;;684.77;110.73;;;;;;;;;;5054924;28;21013;-74
2021/11/03 02:53:44;;;;;;;534.77;93.73;;;;;;;;;;5055456;28;20249;-74
2021/11/03 02:56:12;;;;;;;579.73;99.83;;;;;;;;;;5053487;28;20547;-74
2021/11/03 02:58:40;;;;;;;614.33;105.60;;;;;;;;;;5052907;28;20206;-74
2021/11/03 03:01:17;;;;;;;628.00;103.30;;;;;;;;;;5055265;28;20347;-74
2021/11/03 03:03:45;;;;;;;930.10;146.30;;;;;;;;;;5054537;28;20278;-74
2021/11/03 03:06:18;;;;;;;569.80;98.80;;;;;;;;;;5054739;28;20230;-74
2021/11/03 03:08:44;;;;;;;498.70;90.20;;;;;;;;;;5053488;28;20238;-74
2021/11/03 03:11:11;;;;;;;685.27;111.87;;;;;;;;;;5053280;28;20831;-74
2021/11/03 03:13:37;;;;;;;801.13;142.10;;;;;;;;;;5053086;28;20264;-74
2021/11/03 03:16:05;;;;;;;899.53;143.33;;;;;;;;;;5054270;28;20233;-74
2021/11/03 03:18:32;;;;;;;740.10;126.90;;;;;;;;;;5053125;28;20230;-74
2021/11/03 03:20:58;;;;;;;733.63;123.20;;;;;;;;;;5053358;28;20211;-74
2021/11/03 03:23:24;;;;;;;760.90;119.63;;;;;;;;;;5053460;28;20281;-74
2021/11/03 03:25:53;;;;;;;1045.53;156.93;;;;;;;;;;5053928;28;20237;-74
2021/11/03 03:28:20;;;;;;;550.87;87.60;;;;;;;;;;5053900;28;20295;-74
2021/11/03 03:30:47;;;;;;;1001.03;151.30;;;;;;;;;;5052069;28;20210;-74
2021/11/03 03:33:15;;;;;;;486.33;87.87;;;;;;;;;;5053248;28;20221;-74
2021/11/03 03:35:41;;;;;;;750.13;127.17;;;;;;;;;;5053067;28;20271;-74
2021/11/03 03:38:07;;;;;;;589.50;97.60;;;;;;;;;;5052631;28;20730;-74
2021/11/03 03:40:34;;;;;;;523.97;93.47;;;;;;;;;;5052601;28;20272;-74
2021/11/03 03:43:00;;;;;;;603.03;107.97;;;;;;;;;;5052538;28;20285;-74
2021/11/03 03:45:27;;;;;;;546.80;99.30;;;;;;;;;;5053493;28;20264;-74
2021/11/03 03:47:53;;;;;;;835.77;134.07;;;;;;;;;;5052228;28;20272;-74
2021/11/03 03:50:21;;;;;;;553.30;108.33;;;;;;;;;;5053718;28;20223;-74
2021/11/03 03:52:48;;;;;;;815.43;133.67;;;;;;;;;;5051690;28;20314;-74
2021/11/03 03:55:14;;;;;;;790.27;135.20;;;;;;;;;;5052890;28;20231;-74
2021/11/03 03:57:41;;;;;;;965.57;167.37;;;;;;;;;;5053301;28;20636;-74
2021/11/03 04:00:12;;;;;;;805.87;141.97;;;;;;;;;;5053800;28;20228;-74
2021/11/03 04:02:38;;;;;;;759.33;130.87;;;;;;;;;;5052468;28;20210;-74
2021/11/03 04:05:06;;;;;;;893.30;147.87;;;;;;;;;;5053833;28;20339;-74
2021/11/03 04:07:34;;;;;;;1034.33;165.83;;;;;;;;;;5052419;28;20776;-74
2021/11/03 04:10:00;;;;;;;571.97;116.70;;;;;;;;;;5051459;28;20226;-76
2021/11/03 04:12:27;;;;;;;456.47;87.40;;;;;;;;;;5051938;28;20256;-74
2021/11/03 04:14:53;;;;;;;577.83;102.57;;;;;;;;;;5051740;28;20209;-74
2021/11/03 04:17:19;;;;;;;870.03;140.67;;;;;;;;;;5053860;28;20237;-74
2021/11/03 04:19:46;;;;;;;948.40;155.17;;;;;;;;;;5052840;28;20226;-75
2021/11/03 04:22:13;;;;;;;954.53;152.20;;;;;;;;;;5051637;28;20252;-74
2021/11/03 04:24:40;;;;;;;725.70;123.43;;;;;;;;;;5053433;28;20238;-74
2021/11/03 04:27:07;;;;;;;717.40;130.57;;;;;;;;;;5052087;28;20214;-74
2021/11/03 04:29:34;;;;;;;455.23;94.03;;;;;;;;;;5050473;28;20609;-74
2021/11/03 04:32:00;;;;;;;274.73;64.90;;;;;;;;;;5052316;28;20213;-74
2021/11/03 04:34:27;;;;;;;610.83;110.97;;;;;;;;;;5052432;28;20238;-74
2021/11/03 04:36:53;;;;;;;762.77;133.03;;;;;;;;;;5051668;28;20299;-74
2021/11/03 04:39:20;;;;;;;542.83;96.07;;;;;;;;;;5054435;28;20229;-74
2021/11/03 04:41:48;;;;;;;687.27;119.23;;;;;;;;;;5052700;28;20215;-74
2021/11/03 04:44:14;;;;;;;718.90;122.43;;;;;;;;;;5053812;28;20215;-74
2021/11/03 04:46:41;;;;;;;514.20;97.83;;;;;;;;;;5052885;28;20653;-74
2021/11/03 04:49:08;;;;;;;750.17;133.40;;;;;;;;;;5051747;28;20835;-74
2021/11/03 04:51:34;;;;;;;331.93;70.80;;;;;;;;;;5052293;28;20211;-74
2021/11/03 04:54:01;;;;;;;387.70;89.47;;;;;;;;;;5052350;28;20226;-74
2021/11/03 04:56:33;;;;;;;779.43;138.27;;;;;;;;;;5051738;28;20767;-74
2021/11/03 04:59:01;;;;;;;513.77;94.33;;;;;;;;;;5053152;28;20217;-74
2021/11/03 05:01:28;;;;;;;679.47;117.60;;;;;;;;;;5051749;28;20218;-74
2021/11/03 05:03:56;;;;;;;485.80;92.40;;;;;;;;;;5052209;28;20685;-74
2021/11/03 05:06:26;;;;;;;945.53;160.10;;;;;;;;;;5050958;28;20715;-74
2021/11/03 05:08:54;;;;;;;538.73;106.07;;;;;;;;;;5052004;28;20324;-74
2021/11/03 05:11:21;;;;;;;447.03;96.70;;;;;;;;;;5050913;28;20214;-74
2021/11/03 05:13:49;;;;;;;462.10;96.97;;;;;;;;;;5050910;28;20222;-74
2021/11/03 05:16:19;;;;;;;682.73;127.43;;;;;;;;;;5052227;28;20209;-74
2021/11/03 05:18:45;;;;;;;679.53;129.17;;;;;;;;;;5051786;28;20238;-75
2021/11/03 05:21:12;;;;;;;480.30;87.83;;;;;;;;;;5052310;28;20210;-76
2021/11/03 05:23:38;;;;;;;488.73;95.10;;;;;;;;;;5053414;28;20236;-74
2021/11/03 05:26:05;;;;;;;405.47;87.17;;;;;;;;;;5054728;28;20609;-74
2021/11/03 05:28:31;;;;;;;748.10;135.10;;;;;;;;;;5052048;28;20218;-74
2021/11/03 05:30:58;;;;;;;448.43;96.20;;;;;;;;;;5050554;28;20221;-74
2021/11/03 05:33:27;;;;;;;650.55;150.90;;;;;;;;;;5055461;28;20470;-80
2021/11/03 05:35:54;;;;;;;437.57;91.30;;;;;;;;;;5059179;28;20219;-80
2021/11/03 05:38:22;;;;;;;438.90;87.87;;;;;;;;;;5060506;28;20254;-80
2021/11/03 05:40:49;;;;;;;679.80;123.23;;;;;;;;;;5056377;28;20221;-78
2021/11/03 05:43:15;;;;;;;356.30;86.50;;;;;;;;;;5060854;28;20215;-78
2021/11/03 05:45:42;;;;;;;586.63;106.87;;;;;;;;;;5059168;28;20268;-78
2021/11/03 05:48:08;;;;;;;346.43;73.47;;;;;;;;;;5058150;28;20719;-78
2021/11/03 05:50:36;;;;;;;635.43;113.07;;;;;;;;;;5060204;28;20229;-78
2021/11/03 05:53:04;;;;;;;630.17;117.77;;;;;;;;;;5060758;28;20210;-78
2021/11/03 05:55:31;;;;;;;510.43;98.80;;;;;;;;;;5058628;28;20948;-78
2021/11/03 05:57:58;;;;;;;445.23;94.87;;;;;;;;;;5057315;28;20652;-78
2021/11/03 06:00:28;;;;;;;575.10;99.77;;;;;;;;;;5058864;28;20262;-78
2021/11/03 06:02:54;;;;;;;708.67;122.43;;;;;;;;;;5058123;28;20226;-78
2021/11/03 06:05:22;;;;;;;444.03;85.50;;;;;;;;;;5057851;28;20234;-78
2021/11/03 06:07:51;;;;;;;653.03;121.60;;;;;;;;;;5059240;28;20571;-78
2021/11/03 06:10:24;;;;;;;484.67;99.70;;;;;;;;;;5059620;28;20226;-78
2021/11/03 06:12:51;;;;;;;404.57;82.80;;;;;;;;;;5057958;28;20221;-77
2021/11/03 06:15:18;;;;;;;464.90;88.57;;;;;;;;;;5055478;28;20288;-78
2021/11/03 06:17:45;;;;;;;610.90;114.60;;;;;;;;;;5054907;28;20234;-78
2021/11/03 06:20:12;;;;;;;491.80;89.07;;;;;;;;;;5057406;28;20234;-78
2021/11/03 06:22:38;;;;;;;556.60;99.13;;;;;;;;;;5055801;28;20660;-78
2021/11/03 06:25:13;;;;;;;490.17;88.40;;;;;;;;;;5055946;28;20237;-78
2021/11/03 06:27:40;;;;;;;775.50;132.70;;;;;;;;;;5055532;28;20230;-77
2021/11/03 06:30:09;;;;;;;445.37;76.60;;;;;;;;;;5055869;28;20207;-79
2021/11/03 06:32:36;;;;;;;757.20;135.30;;;;;;;;;;5055184;28;20214;-79
2021/11/03 06:35:02;;;;;;;613.80;105.33;;;;;;;;;;5056325;28;20254;-79
2021/11/03 06:37:29;;;;;;;609.00;98.90;;;;;;;;;;5056398;28;20273;-79
2021/11/03 06:39:56;;;;;;;705.43;120.40;;;;;;;;;;5057743;28;20231;-80
2021/11/03 06:42:24;;;;;;;483.90;84.03;;;;;;;;;;5053756;28;20218;-79
2021/11/03 06:44:51;;;;;;;966.27;160.67;;;;;;;;;;5059422;28;20243;-79
2021/11/03 06:47:19;;;;;;;647.90;110.93;;;;;;;;;;5058220;28;20210;-79
2021/11/03 06:49:46;;;;;;;899.33;140.57;;;;;;;;;;5057092;28;20358;-79
2021/11/03 06:52:13;;;;;;;615.50;105.27;;;;;;;;;;5058331;28;20219;-79
2021/11/03 06:54:39;;;;;;;679.20;122.97;;;;;;;;;;5061007;28;20224;-79
2021/11/03 06:57:06;;;;;;;774.63;129.30;;;;;;;;;;5059788;28;20323;-79
2021/11/03 06:59:37;;;;;;;688.40;113.43;;;;;;;;;;5060517;28;20211;-79
2021/11/03 07:02:04;;;;;;;638.10;112.03;;;;;;;;;;5058105;28;20226;-79
2021/11/03 07:04:31;;;;;;;432.97;79.77;;;;;;;;;;5061021;28;20230;-79
2021/11/03 07:06:57;;;;;;;794.27;136.03;;;;;;;;;;5059186;28;20209;-80
2021/11/03 07:09:24;;;;;;;863.60;133.70;;;;;;;;;;5059326;28;20315;-79
2021/11/03 07:11:51;;;;;;;904.57;150.70;;;;;;;;;;5058057;28;20207;-80
2021/11/03 07:14:18;;;;;;;518.67;101.87;;;;;;;;;;5060203;28;20202;-79
2021/11/03 07:16:46;;;;;;;754.63;127.27;;;;;;;;;;5059768;28;20221;-79
2021/11/03 07:19:12;;;;;;;639.20;113.57;;;;;;;;;;5058368;28;20222;-79
2021/11/03 07:21:39;;;;;;;445.77;89.47;;;;;;;;;;5058696;28;20218;-79
2021/11/03 07:24:06;;;;;;;913.60;149.20;;;;;;;;;;5057008;28;20293;-79
2021/11/03 07:26:32;;;;;;;591.03;107.73;;;;;;;;;;5058968;28;20222;-79
2021/11/03 07:28:59;;;;;;;747.10;135.53;;;;;;;;;;5055908;28;20213;-79
2021/11/03 07:31:25;;;;;;;653.30;118.20;;;;;;;;;;5058354;28;20220;-79
2021/11/03 07:33:53;;;;;;;729.43;137.17;;;;;;;;;;5057873;28;20234;-79
2021/11/03 07:36:21;;;;;;;690.17;130.23;;;;;;;;;;5056875;28;20226;-80
2021/11/03 07:38:48;;;;;;;597.80;111.50;;;;;;;;;;5056430;28;20276;-79
2021/11/03 07:41:14;;;;;;;628.43;119.03;;;;;;;;;;5057087;28;20215;-80
2021/11/03 07:43:44;;;;;;;597.27;105.63;;;;;;;;;;5056917;28;20229;-79
2021/11/03 07:46:11;;;;;;;645.07;124.47;;;;;;;;;;5057503;28;20199;-79
2021/11/03 07:48:38;;;;;;;557.93;100.93;;;;;;;;;;5058064;28;20214;-79
2021/11/03 07:51:09;;;;;;;878.23;153.27;;;;;;;;;;5057745;28;20221;-79
2021/11/03 07:53:36;;;;;;;758.73;143.83;;;;;;;;;;5055580;28;20580;-80
2021/11/03 07:56:06;;;;;;;399.23;80.63;;;;;;;;;;5057176;28;20217;-80
2021/11/03 07:58:35;;;;;;;524.50;91.03;;;;;;;;;;5059862;28;20210;-79
2021/11/03 08:01:03;;;;;;;852.03;144.83;;;;;;;;;;5056695;28;20217;-79
2021/11/03 08:03:30;;;;;;;747.10;125.10;;;;;;;;;;5057715;28;20590;-79
2021/11/03 08:05:57;;;;;;;721.03;123.07;;;;;;;;;;5056002;28;20229;-80
2021/11/03 08:08:32;;;;;;;729.03;129.13;;;;;;;;;;5056872;28;20252;-79
2021/11/03 08:10:59;;;;;;;421.97;88.60;;;;;;;;;;5055167;28;20275;-80
2021/11/03 08:13:30;;;;;;;499.87;103.27;;;;;;;;;;5058466;28;20218;-79
2021/11/03 08:15:59;;;;;;;588.47;109.93;;;;;;;;;;5057345;28;20289;-79
2021/11/03 08:18:28;;;;;;;505.90;91.97;;;;;;;;;;5057252;28;20233;-79
2021/11/03 08:20:56;;;;;;;593.50;109.83;;;;;;;;;;5057485;28;20207;-79
2021/11/03 08:23:23;;;;;;;512.07;101.10;;;;;;;;;;5055539;28;20226;-79
2021/11/03 08:25:51;;;;;;;586.13;116.33;;;;;;;;;;5055990;28;21160;-79
2021/11/03 08:28:18;;;;;;;571.97;109.97;;;;;;;;;;5057085;28;20226;-79
2021/11/03 08:30:48;;;;;;;504.30;97.50;;;;;;;;;;5056737;28;20217;-79
2021/11/03 08:33:17;;;;;;;539.90;97.23;;;;;;;;;;5054381;28;20609;-80
2021/11/03 08:35:47;;;;;;;526.00;99.83;;;;;;;;;;5059629;28;20225;-79
2021/11/03 08:38:18;;;;;;;673.73;125.53;;;;;;;;;;5055908;28;20246;-79
2021/11/03 08:40:45;;;;;;;589.07;111.47;;;;;;;;;;5055670;28;20290;-79
2021/11/03 08:43:14;;;;;;;760.17;137.27;;;;;;;;;;5057146;28;20199;-79
2021/11/03 08:45:41;;;;;;;678.90;123.20;;;;;;;;;;5057282;28;20203;-79
2021/11/03 08:48:08;;;;;;;774.73;135.80;;;;;;;;;;5057093;28;20256;-79
2021/11/03 08:50:37;;;;;;;538.03;101.47;;;;;;;;;;5055244;28;20234;-79
2021/11/03 08:53:04;;;;;;;339.03;76.50;;;;;;;;;;5056375;28;20210;-79
2021/11/03 08:55:33;;;;;;;674.17;119.67;;;;;;;;;;5056964;28;20206;-79
2021/11/03 08:58:02;;;;;;;336.50;73.23;;;;;;;;;;5057235;28;21232;-79
2021/11/03 09:00:33;;;;;;;557.50;107.87;;;;;;;;;;5058545;28;20221;-79
2021/11/03 09:03:00;;;;;;;236.03;61.97;;;;;;;;;;5057144;28;20206;-79
2021/11/03 09:05:29;;;;;;;333.37;82.10;;;;;;;;;;5056718;28;20319;-79
2021/11/03 09:07:57;;;;;;;334.53;74.73;;;;;;;;;;5057677;28;20230;-79
2021/11/03 09:10:25;;;;;;;467.07;94.87;;;;;;;;;;5058808;28;20217;-79
2021/11/03 09:12:52;;;;;;;367.03;72.90;;;;;;;;;;5060441;28;20691;-79
2021/11/03 09:15:21;;;;;;;455.57;94.20;;;;;;;;;;5060877;28;20221;-79
2021/11/03 09:17:49;;;;;;;303.07;69.00;;;;;;;;;;5059178;28;20262;-79
2021/11/03 09:20:17;;;;;;;466.47;95.47;;;;;;;;;;5058357;28;20236;-79
2021/11/03 09:22:44;;;;;;;713.43;129.93;;;;;;;;;;5060408;28;20225;-79
2021/11/03 09:25:13;;;;;;;234.80;57.90;;;;;;;;;;5063021;28;20260;-79
2021/11/03 09:27:40;;;;;;;232.50;55.70;;;;;;;;;;5062759;28;20206;-79
2021/11/03 09:30:10;;;;;;;399.13;80.63;;;;;;;;;;5060754;28;20214;-79
2021/11/03 09:32:40;;;;;;;459.63;91.97;;;;;;;;;;5057648;28;20292;-79
2021/11/03 09:35:10;;;;;;;287.30;60.90;;;;;;;;;;5060691;28;21135;-79
2021/11/03 09:37:37;;;;;;;359.83;73.47;;;;;;;;;;5059387;28;20847;-79
2021/11/03 09:40:06;;;;;;;240.80;64.43;;;;;;;;;;5059979;28;20308;-79
2021/11/03 09:42:33;;;;;;;269.33;58.17;;;;;;;;;;5059842;28;20237;-79
2021/11/03 09:45:01;;;;;;;260.97;57.33;;;;;;;;;;5057491;28;20211;-79
2021/11/03 09:47:31;;;;;;;206.40;62.63;;;;;;;;;;5060157;28;20684;-79
2021/11/03 09:50:01;;;;;;;211.47;60.87;;;;;;;;;;5061213;28;20243;-79
2021/11/03 09:52:35;;;;;;;569.03;112.80;;;;;;;;;;5060787;28;20219;-79
2021/11/03 09:55:11;;;;;;;225.30;54.67;;;;;;;;;;5059536;28;20230;-79
2021/11/03 09:57:48;;;;;;;110.70;43.03;;;;;;;;;;5059259;28;20246;-79
2021/11/03 10:00:22;;;;;;;104.23;43.10;;;;;;;;;;5060929;28;20218;-80
2021/11/03 10:02:54;;;;;;;135.03;42.20;;;;;;;;;;5058705;28;20249;-79
2021/11/03 10:05:26;;;;;;;171.70;52.67;;;;;;;;;;5055229;28;20227;-78
2021/11/03 10:07:59;;;;;;;150.30;51.40;;;;;;;;;;5055122;28;20730;-77
2021/11/03 10:10:31;;;;;;;219.77;58.47;;;;;;;;;;5053390;28;20216;-77
2021/11/03 10:12:59;;;;;;;142.07;51.43;;;;;;;;;;5053551;28;20205;-77
2021/11/03 10:15:28;;;;;;;76.80;39.57;;;;;;;;;;5054568;28;20223;-77
2021/11/03 10:18:15;;;;;;;71.90;38.87;;;;;;;;;;5052935;28;20219;-77
2021/11/03 10:20:45;;;;;;;57.17;36.97;;;;;;;;;;5052360;28;20640;-76
2021/11/03 10:23:22;;;;;;;99.73;47.20;;;;;;;;;;5052653;28;20616;-77
2021/11/03 10:25:58;;;;;;;89.67;42.47;;;;;;;;;;5053559;28;20237;-77
2021/11/03 10:28:32;;;;;;;49.97;35.10;;;;;;;;;;5051791;28;20555;-77
2021/11/03 10:30:59;;;;;;;51.80;35.67;;;;;;;;;;5053620;28;20288;-76
2021/11/03 10:33:32;;;;;;;51.00;33.73;;;;;;;;;;5049240;28;20229;-77
2021/11/03 10:36:01;;;;;;;56.70;35.33;;;;;;;;;;5053394;28;20649;-77
2021/11/03 10:38:40;;;;;;;59.83;39.07;;;;;;;;;;5052569;28;20304;-76
2021/11/03 10:41:18;;;;;;;90.40;44.53;;;;;;;;;;5052322;28;20258;-76
2021/11/03 10:43:57;;;;;;;47.03;36.40;;;;;;;;;;5053580;28;20207;-76
2021/11/03 10:46:26;;;;;;;52.20;35.20;;;;;;;;;;5053397;28;20210;-77
2021/11/03 10:49:11;;;;;;;113.97;45.70;;;;;;;;;;5052939;28;20664;-76
2021/11/03 10:51:40;;;;;;;63.50;35.23;;;;;;;;;;5053790;28;20248;-77
2021/11/03 10:54:12;;;;;;;55.00;32.77;;;;;;;;;;5052347;28;20236;-76
2021/11/03 10:56:50;;;;;;;94.17;34.27;;;;;;;;;;5053068;28;20211;-77
2021/11/03 10:59:26;;;;;;;127.13;42.53;;;;;;;;;;5053039;28;20235;-77
2021/11/03 11:01:54;;;;;;;71.40;37.77;;;;;;;;;;5053602;28;20217;-77
2021/11/03 11:04:23;;;;;;;125.03;47.10;;;;;;;;;;5052541;28;20230;-77
2021/11/03 11:06:52;;;;;;;65.70;39.17;;;;;;;;;;5053201;28;20221;-77
2021/11/03 11:09:28;;;;;;;89.53;38.37;;;;;;;;;;5051426;28;20243;-77
2021/11/03 11:12:00;;;;;;;54.13;34.93;;;;;;;;;;5051449;28;20212;-76
2021/11/03 11:14:31;;;;;;;79.87;38.70;;;;;;;;;;5052286;28;20207;-77
2021/11/03 11:17:01;;;;;;;58.10;36.03;;;;;;;;;;5047987;28;20227;-77
2021/11/03 11:19:41;;;;;;;64.20;36.60;;;;;;;;;;5054712;28;20238;-77
2021/11/03 11:22:19;;;;;;;137.43;51.37;;;;;;;;;;5051555;28;20754;-77
2021/11/03 11:24:56;;;;;;;78.40;41.60;;;;;;;;;;5052266;28;20587;-76
2021/11/03 11:27:29;;;;;;;53.57;33.57;;;;;;;;;;5052832;28;20207;-77
2021/11/03 11:30:05;;;;;;;80.07;38.23;;;;;;;;;;5049494;28;20625;-77
2021/11/03 11:32:40;;;;;;;60.77;34.77;;;;;;;;;;5050629;28;20547;-77
2021/11/03 11:35:17;;;;;;;51.07;31.90;;;;;;;;;;5050911;28;21134;-77
2021/11/03 11:37:54;;;;;;;56.43;36.13;;;;;;;;;;5053585;28;20241;-77
2021/11/03 11:40:31;;;;;;;70.83;40.00;;;;;;;;;;5054081;28;20222;-77
2021/11/03 11:43:01;;;;;;;60.03;36.20;;;;;;;;;;5051363;28;21026;-77
2021/11/03 11:45:30;;;;;;;147.37;51.77;;;;;;;;;;5054158;28;20568;-79
2021/11/03 11:48:02;;;;;;;67.20;38.77;;;;;;;;;;5052750;28;20214;-77
2021/11/03 11:50:36;;;;;;;56.00;37.47;;;;;;;;;;5052391;28;20823;-77
2021/11/03 11:53:02;;;;;;;136.23;48.53;;;;;;;;;;5053048;28;20398;-77
2021/11/03 11:55:32;;;;;;;89.57;47.77;;;;;;;;;;5054149;28;20467;-79
2021/11/03 11:58:12;;;;;;;116.40;49.90;;;;;;;;;;5053218;28;20225;-77
2021/11/03 12:01:00;;;;;;;155.03;52.13;;;;;;;;;;5053599;28;20233;-77
2021/11/03 12:03:28;;;;;;;59.97;39.13;;;;;;;;;;5052205;28;20292;-77
2021/11/03 12:06:09;;;;;;;84.60;45.17;;;;;;;;;;5053658;28;20324;-77
2021/11/03 12:08:59;;;;;;;59.30;38.40;;;;;;;;;;5052593;28;20796;-78
2021/11/03 12:11:28;;;;;;;51.30;32.87;;;;;;;;;;5052430;28;20207;-77
2021/11/03 12:14:01;;;;;;;365.43;77.47;;;;;;;;;;5050944;28;20223;-77
2021/11/03 12:16:34;;;;;;;86.40;38.53;;;;;;;;;;5050785;28;20230;-77
2021/11/03 12:19:04;;;;;;;75.40;35.90;;;;;;;;;;5052497;28;20689;-77
2021/11/03 12:21:58;;;;;;;99.47;44.77;;;;;;;;;;5052226;28;20234;-77
2021/11/03 12:24:31;;;;;;;60.70;36.80;;;;;;;;;;5051818;28;20856;-77
2021/11/03 12:27:28;;;;;;;49.03;34.63;;;;;;;;;;5052063;28;20253;-77
2021/11/03 12:29:57;;;;;;;104.60;42.70;;;;;;;;;;5052872;28;20823;-77
2021/11/03 12:32:29;;;;;;;112.93;45.17;;;;;;;;;;5049479;28;20211;-77
2021/11/03 12:35:05;;;;;;;77.87;38.70;;;;;;;;;;5051219;28;20250;-77
2021/11/03 12:37:36;;;;;;;71.80;36.40;;;;;;;;;;5053102;28;20211;-77
2021/11/03 12:40:29;;;;;;;71.80;35.73;;;;;;;;;;5051237;28;20233;-77
2021/11/03 12:43:20;;;;;;;108.57;43.07;;;;;;;;;;5058359;28;20284;-77
2021/11/03 12:45:53;;;;;;;165.87;46.03;;;;;;;;;;5057892;28;20300;-77
2021/11/03 12:48:22;;;;;;;110.57;42.23;;;;;;;;;;5056617;28;20662;-78
2021/11/03 12:50:51;;;;;;;132.00;43.53;;;;;;;;;;5058087;28;20530;-77
2021/11/03 12:53:21;;;;;;;80.17;35.97;;;;;;;;;;5056726;28;20319;-77
2021/11/03 12:55:55;;;;;;;175.50;46.23;;;;;;;;;;5057468;28;20710;-77
2021/11/03 12:58:37;;;;;;;58.67;34.37;;;;;;;;;;5055142;28;20215;-77
2021/11/03 13:01:07;;;;;;;59.40;36.80;;;;;;;;;;5055977;28;20199;-77
2021/11/03 13:03:35;;;;;;;57.50;35.90;;;;;;;;;;5054997;28;20221;-77
2021/11/03 13:06:05;;;;;;;50.90;35.30;;;;;;;;;;5056010;28;20246;-77
2021/11/03 13:08:40;;;;;;;55.27;31.57;;;;;;;;;;5056841;28;20265;-77
2021/11/03 13:11:16;;;;;;;84.20;39.63;;;;;;;;;;5056504;28;20569;-77
2021/11/03 13:13:48;;;;;;;96.80;40.03;;;;;;;;;;5056680;28;20219;-78
2021/11/03 13:16:24;;;;;;;59.57;32.97;;;;;;;;;;5056946;28;20217;-77
2021/11/03 13:18:51;;;;;;;65.80;33.70;;;;;;;;;;5055889;28;20912;-77
2021/11/03 13:21:31;;;;;;;74.60;31.37;;;;;;;;;;5055786;28;20200;-77
2021/11/03 13:24:02;;;;;;;69.80;30.77;;;;;;;;;;5056005;28;20231;-77
2021/11/03 13:26:32;;;;;;;68.60;32.07;;;;;;;;;;5056550;28;20261;-77
2021/11/03 13:29:02;;;;;;;218.13;46.23;;;;;;;;;;5055818;28;20325;-77
2021/11/03 13:31:36;;;;;;;59.33;32.37;;;;;;;;;;5055263;28;20724;-77
2021/11/03 13:34:23;;;;;;;212.20;46.53;;;;;;;;;;5053717;28;20228;-77
2021/11/03 13:37:06;;;;;;;96.93;35.67;;;;;;;;;;5064167;28;20234;-77
2021/11/03 13:39:35;;;;;;;97.67;37.33;;;;;;;;;;5056184;28;20255;-77
2021/11/03 13:42:20;;;;;;;40.73;28.00;;;;;;;;;;5054528;28;20220;-77
2021/11/03 13:44:58;;;;;;;60.60;32.83;;;;;;;;;;5054957;28;20208;-77
2021/11/03 13:47:28;;;;;;;56.27;29.83;;;;;;;;;;5056237;28;20214;-77
2021/11/03 13:50:20;;;;;;;54.27;28.10;;;;;;;;;;5055490;28;20251;-77
2021/11/03 13:53:18;;;;;;;61.33;34.77;;;;;;;;;;5056477;28;20664;-77
2021/11/03 13:55:49;;;;;;;53.87;28.97;;;;;;;;;;5054536;28;20196;-77
2021/11/03 13:58:33;;;;;;;40.00;26.93;;;;;;;;;;5053995;28;20705;-77
2021/11/03 14:01:06;;;;;;;43.93;27.80;;;;;;;;;;5057090;28;20754;-77
2021/11/03 14:03:38;;;;;;;37.77;27.80;;;;;;;;;;5057752;28;20227;-77
2021/11/03 14:06:13;;;;;;;47.23;28.87;;;;;;;;;;5057351;28;20313;-77
2021/11/03 14:08:41;;;;;;;32.87;25.40;;;;;;;;;;5057059;28;20252;-77
2021/11/03 14:11:07;;;;;;;36.00;26.60;;;;;;;;;;5058875;28;20272;-77
2021/11/03 14:13:34;;;;;;;40.73;29.00;;;;;;;;;;5056970;28;20223;-77
2021/11/03 14:16:22;;;;;;;32.77;26.37;;;;;;;;;;5058992;28;20697;-77
2021/11/03 14:18:49;;;;;;;37.03;28.47;;;;;;;;;;5059028;28;20223;-78
2021/11/03 14:21:16;;;;;;;54.40;31.63;;;;;;;;;;5059149;28;20228;-77